This is the latest recevied weather packets stored in our database for station/object OE6JUE. If no packets are shown the sender has not sent any weather packets the latest 10 day(s).
| Time | Temp. | Humidity | Pressure | Rain* | Wind** | Luminosity | Snow |
|---|---|---|---|---|---|---|---|
| 1777890589 | 23.89° C | 31% | 1017.5 hPa | 0 mm | - | - | - |
| 1777890289 | 23.33° C | 31% | 1017.4 hPa | 0 mm | - | - | - |
| 1777889989 | 23.89° C | 31% | 1017.6 hPa | 0 mm | - | - | - |
| 1777889689 | 23.89° C | 31% | 1017.8 hPa | 0 mm | - | - | - |
| 1777889389 | 23.33° C | 31% | 1017.8 hPa | 0 mm | - | - | - |
| 1777889089 | 23.89° C | 31% | 1017.8 hPa | 0 mm | - | - | - |
| 1777888789 | 23.33° C | 31% | 1017.9 hPa | 0 mm | - | - | - |
| 1777888489 | 23.33° C | 32% | 1017.9 hPa | 0 mm | - | - | - |
| 1777888189 | 23.33° C | 35% | 1018 hPa | 0 mm | - | - | - |
| 1777887889 | 22.78° C | 37% | 1018 hPa | 0 mm | - | - | - |
| 1777887589 | 21.67° C | 41% | 1017.9 hPa | 0 mm | - | - | - |
| 1777887289 | 22.22° C | 40% | 1017.9 hPa | 0 mm | - | - | - |
| 1777886989 | 21.67° C | 40% | 1018 hPa | 0 mm | - | - | - |
| 1777886689 | 21.67° C | 40% | 1018.1 hPa | 0 mm | - | - | - |
| 1777886389 | 22.22° C | 41% | 1018.1 hPa | 0 mm | - | - | - |
| 1777886089 | 22.22° C | 40% | 1018.3 hPa | 0 mm | - | - | - |
| 1777885789 | 21.67° C | 42% | 1018.4 hPa | 0 mm | - | - | - |
| 1777885489 | 22.22° C | 40% | 1018.3 hPa | 0 mm | - | - | - |
| 1777885189 | 22.22° C | 41% | 1018.3 hPa | 0 mm | - | - | - |
| 1777884889 | 21.11° C | 43% | 1018.4 hPa | 0 mm | - | - | - |
| 1777884589 | 21.11° C | 42% | 1018.5 hPa | 0 mm | - | - | - |
| 1777884290 | 21.11° C | 42% | 1018.4 hPa | 0 mm | - | - | - |
| 1777883989 | 21.11° C | 42% | 1018.4 hPa | 0 mm | - | - | - |
| 1777883689 | 21.11° C | 43% | 1018.4 hPa | 0 mm | - | - | - |
| 1777883389 | 21.67° C | 41% | 1018.4 hPa | 0 mm | - | - | - |
* Rain latest hour (hover to see other rain measurements)
** Current wind speed in m/s (hover to see current wind gust speed)